Time;durP1;ratioP1;P1;durP2;ratioP2;P2;SDS_P1;SDS_P2;PMS_P1;PMS_P2;Temp;Humidity;BMP_temperature;BMP_pressure;BME280_temperature;BME280_humidity;BME280_pressure;Samples;Min_cycle;Max_cycle;Signal;HPM_P1;HPM_P2
2022/05/19 00:01:21;;;;;;;24.70;11.60;;;;;;;8.20;47.50;99666.13;433624;1269;111112;-41
2022/05/19 00:11:32;;;;;;;25.50;11.70;;;;;;;8.04;47.88;99665.45;433437;1270;107815;-41
2022/05/19 00:21:39;;;;;;;27.10;11.00;;;;;;;7.90;48.63;99658.35;433665;1268;105761;-44
2022/05/19 00:31:46;;;;;;;26.10;10.70;;;;;;;7.92;48.95;99659.86;433800;1268;97929;-44
2022/05/19 00:52:06;;;;;;;27.80;11.80;;;;;;;7.67;49.74;99662.20;433681;1269;110940;-47
2022/05/19 01:02:16;;;;;;;19.10;9.90;;;;;;;7.60;49.93;99665.23;433655;1268;108984;-48
2022/05/19 01:12:24;;;;;;;17.40;9.20;;;;;;;7.43;50.36;99652.71;434185;1257;108807;-43
2022/05/19 01:22:42;;;;;;;21.10;9.80;;;;;;;7.36;50.73;99646.73;433212;1270;97896;-43
2022/05/19 01:32:49;;;;;;;28.50;9.80;;;;;;;7.17;51.24;99633.56;433277;1269;97993;-41
2022/05/19 01:43:01;;;;;;;23.00;10.50;;;;;;;7.01;51.75;99619.45;433218;1270;111139;-43
2022/05/19 01:53:14;;;;;;;25.10;11.30;;;;;;;6.91;52.21;99622.99;433172;1269;109275;-43
2022/05/19 02:03:19;;;;;;;19.50;10.60;;;;;;;6.74;52.74;99616.08;433228;1270;109468;-45
2022/05/19 02:13:29;;;;;;;23.50;10.80;;;;;;;6.61;53.40;99617.23;433364;1270;97919;-45
2022/05/19 02:23:40;;;;;;;20.90;10.70;;;;;;;6.50;53.53;99620.34;433340;1270;110293;-46
2022/05/19 02:33:47;;;;;;;24.50;11.50;;;;;;;6.36;53.76;99619.34;433281;1269;108925;-44
2022/05/19 02:43:54;;;;;;;28.40;10.90;;;;;;;6.26;53.94;99626.76;433438;1270;97928;-44
2022/05/19 02:54:01;;;;;;;23.70;10.50;;;;;;;6.19;54.24;99626.85;433267;1270;98156;-42
2022/05/19 03:04:09;;;;;;;20.00;10.10;;;;;;;6.24;54.34;99625.27;433318;1270;111599;-41
2022/05/19 03:14:16;;;;;;;20.20;9.00;;;;;;;6.20;54.54;99622.05;433355;1270;107816;-45
2022/05/19 03:24:23;;;;;;;17.80;10.10;;;;;;;6.27;54.68;99622.16;433381;1270;108901;-46
2022/05/19 03:34:31;;;;;;;18.70;10.40;;;;;;;6.57;54.85;99626.13;433260;1270;97993;-43
2022/05/19 03:44:38;;;;;;;21.20;9.40;;;;;;;9.30;53.84;99621.14;433284;1271;111167;-43
2022/05/19 03:54:46;;;;;;;14.40;8.60;;;;;;;12.02;51.47;99622.64;433372;1270;108815;-45
2022/05/19 04:04:53;;;;;;;16.00;8.90;;;;;;;14.03;48.88;99625.30;433089;1270;97080;-45
2022/05/19 04:25:07;;;;;;;13.70;9.50;;;;;;;15.85;44.60;99614.06;432888;1270;109285;-45
2022/05/19 04:35:15;;;;;;;21.10;9.60;;;;;;;16.35;43.18;99612.70;432738;1268;97639;-50
2022/05/19 04:45:21;;;;;;;;;;;;;;;16.73;41.90;99613.95;432740;1270;108781;-41
2022/05/19 04:55:28;;;;;;;15.50;6.90;;;;;;;16.86;40.61;99603.50;432982;1270;96615;-46
2022/05/19 05:05:36;;;;;;;14.60;7.00;;;;;;;16.76;39.28;99603.64;432755;1269;109596;-47
2022/05/19 05:15:44;;;;;;;13.00;6.50;;;;;;;16.85;38.21;99607.06;432727;1271;108712;-46
2022/05/19 05:25:50;;;;;;;;;;;;;;;16.30;38.20;99601.38;433133;1270;97949;-42
2022/05/19 05:35:58;;;;;;;12.60;6.30;;;;;;;16.39;38.39;99597.20;432879;1271;111035;-47
2022/05/19 05:46:11;;;;;;;11.80;6.20;;;;;;;16.53;38.22;99592.64;433070;1270;108811;-44
2022/05/19 05:56:18;;;;;;;24.10;6.20;;;;;;;16.40;38.37;99592.88;432988;1270;97930;-46
2022/05/19 06:06:26;;;;;;;21.40;6.90;;;;;;;16.75;38.62;99589.02;432843;1270;111129;-42
2022/05/19 06:16:33;;;;;;;14.30;5.40;;;;;;;18.36;38.89;99591.13;432914;1270;108691;-47
2022/05/19 06:26:41;;;;;;;9.70;5.10;;;;;;;19.39;37.02;99591.96;432986;1270;97930;-44
2022/05/19 06:36:49;;;;;;;7.90;4.50;;;;;;;20.20;36.39;99592.26;432967;1270;108872;-47
2022/05/19 06:46:56;;;;;;;12.50;4.30;;;;;;;21.11;35.66;99596.45;432899;1270;97958;-48
2022/05/19 06:57:04;;;;;;;9.00;4.20;;;;;;;21.22;34.01;99597.88;433058;1269;111123;-43
2022/05/19 07:07:11;;;;;;;4.70;3.00;;;;;;;22.13;33.95;99590.95;432984;1270;108869;-43
2022/05/19 07:17:19;;;;;;;9.70;2.30;;;;;;;22.51;32.20;99582.73;433081;1270;97907;-48
2022/05/19 07:27:25;;;;;;;;;;;;;;;22.71;32.23;99583.61;433156;1270;109384;-47
2022/05/19 07:37:48;;;;;;;6.90;2.40;;;;;;;22.98;31.73;99588.02;433053;1270;108828;-44
2022/05/19 07:47:54;;;;;;;7.60;3.00;;;;;;;23.32;31.36;99581.77;433068;1270;97913;-43
2022/05/19 07:58:01;;;;;;;5.60;2.70;;;;;;;23.57;30.99;99583.75;432975;1270;109981;-50
2022/05/19 08:08:06;;;;;;;3.80;1.90;;;;;;;24.04;30.28;99574.52;433232;1270;108867;-47
2022/05/19 08:18:15;;;;;;;3.90;1.80;;;;;;;23.91;29.21;99570.46;433080;1269;97897;-48
2022/05/19 08:28:29;;;;;;;5.10;2.10;;;;;;;24.04;29.06;99565.88;432993;1270;97942;-48
2022/05/19 08:38:37;;;;;;;4.40;1.60;;;;;;;24.58;28.80;99559.98;433174;1270;111123;-42
2022/05/19 09:09:01;;;;;;;5.10;2.00;;;;;;;25.15;26.04;99559.63;433283;1270;110644;-43
2022/05/19 09:29:20;;;;;;;3.30;2.20;;;;;;;25.34;26.06;99547.36;433410;1270;97931;-45
2022/05/19 09:59:53;;;;;;;7.70;2.90;;;;;;;25.66;25.61;99519.99;433626;1270;97990;-44
2022/05/19 10:10:00;;;;;;;3.70;2.50;;;;;;;25.43;24.95;99516.14;433413;1270;108729;-47
2022/05/19 10:20:07;;;;;;;12.20;2.30;;;;;;;25.68;25.28;99508.95;433367;1270;97903;-45
2022/05/19 10:40:45;;;;;;;6.10;2.70;;;;;;;26.08;24.98;99476.09;433500;1270;108852;-47
2022/05/19 10:50:52;;;;;;;3.90;1.90;;;;;;;26.20;24.45;99469.00;433217;1270;446943;-44
2022/05/19 11:11:09;;;;;;;5.80;1.90;;;;;;;26.30;23.59;99438.76;433535;1270;108846;-43
2022/05/19 11:21:22;;;;;;;5.30;2.10;;;;;;;26.46;23.66;99427.62;433488;1269;97915;-44
2022/05/19 11:31:31;;;;;;;43.20;3.70;;;;;;;26.69;23.36;99415.89;433513;1269;111090;-45
2022/05/19 11:41:40;;;;;;;9.10;1.90;;;;;;;26.67;23.40;99405.65;433431;1270;108694;-48
2022/05/19 12:02:12;;;;;;;2.80;1.60;;;;;;;27.00;23.08;99382.20;432320;1271;111231;-46
2022/05/19 12:12:25;;;;;;;5.10;1.60;;;;;;;26.86;23.05;99378.15;433432;1270;108675;-42
2022/05/19 12:22:33;;;;;;;2.30;1.20;;;;;;;26.77;23.03;99358.79;433661;1270;96698;-49
2022/05/19 12:32:44;;;;;;;3.80;2.30;;;;;;;26.87;22.90;99348.37;433423;1269;110965;-51
2022/05/19 12:53:38;;;;;;;6.10;1.90;;;;;;;26.77;22.55;99337.46;433487;1270;97907;-46
2022/05/19 13:03:50;;;;;;;1.40;1.10;;;;;;;26.71;23.05;99322.83;433420;1270;111304;-47
2022/05/19 13:14:01;;;;;;;14.60;2.60;;;;;;;26.57;22.76;99315.52;433484;1270;108682;-44
2022/05/19 13:24:15;;;;;;;9.40;1.90;;;;;;;26.56;23.41;99310.29;433393;1270;96620;-42
2022/05/19 13:34:22;;;;;;;11.10;2.20;;;;;;;26.66;23.66;99298.41;433421;1269;110895;-46
2022/05/19 13:44:30;;;;;;;7.50;1.60;;;;;;;26.62;23.48;99287.95;433559;1270;108365;-48
2022/05/19 14:04:47;;;;;;;5.30;1.70;;;;;;;26.27;23.10;99266.35;433527;1269;111123;-46
2022/05/19 14:14:57;;;;;;;4.50;1.80;;;;;;;26.35;23.47;99252.02;433346;1269;108844;-46
2022/05/19 14:25:02;;;;;;;6.80;1.90;;;;;;;26.47;23.19;99241.30;433414;1268;97948;-45
2022/05/19 14:35:08;;;;;;;6.10;1.70;;;;;;;26.50;22.83;99233.65;433388;1269;108899;-43
2022/05/19 14:45:19;;;;;;;5.00;1.70;;;;;;;26.50;22.74;99229.05;433445;1270;97992;-47
2022/05/19 14:55:32;;;;;;;3.60;1.60;;;;;;;26.42;22.65;99216.67;433453;1270;110947;-42
2022/05/19 15:05:40;;;;;;;8.30;1.90;;;;;;;26.30;22.66;99210.89;433497;1270;108501;-46
2022/05/19 15:15:47;;;;;;;5.40;1.80;;;;;;;26.26;23.22;99201.48;433381;1270;97923;-47
2022/05/19 15:25:53;;;;;;;6.70;1.80;;;;;;;26.26;22.95;99184.35;433523;1269;110051;-46
2022/05/19 15:36:01;;;;;;;10.00;1.90;;;;;;;26.10;23.16;99176.43;433316;1270;108839;-47
2022/05/19 15:46:09;;;;;;;6.20;1.40;;;;;;;25.86;23.31;99159.46;433357;1270;97906;-42
2022/05/19 15:56:17;;;;;;;3.30;1.50;;;;;;;25.73;23.47;99153.91;433364;1270;111191;-47
2022/05/19 16:06:24;;;;;;;4.30;1.90;;;;;;;25.71;23.71;99144.20;433449;1269;108877;-43
2022/05/19 16:26:38;;;;;;;7.10;2.10;;;;;;;25.50;23.67;99127.96;433264;1270;111035;-45
2022/05/19 16:36:46;;;;;;;13.60;2.30;;;;;;;25.38;23.59;99124.73;433176;1269;108827;-46
2022/05/19 16:46:54;;;;;;;7.80;3.00;;;;;;;25.21;23.96;99126.62;433489;1270;97900;-42
2022/05/19 17:07:27;;;;;;;33.60;3.70;;;;;;;24.56;24.18;99122.55;433418;1270;108886;-47
2022/05/19 17:27:41;;;;;;;11.30;2.10;;;;;;;23.84;24.68;99120.43;433365;1269;111201;-45
2022/05/19 17:37:48;;;;;;;14.10;2.40;;;;;;;23.44;24.80;99116.91;433173;1268;108916;-47
2022/05/19 17:47:55;;;;;;;19.50;3.00;;;;;;;23.06;25.28;99114.64;433244;1270;98005;-46
2022/05/19 17:58:02;;;;;;;7.90;2.60;;;;;;;22.64;25.63;99108.50;433250;1270;111236;-43
2022/05/19 18:08:09;;;;;;;6.00;3.30;;;;;;;22.18;25.77;99099.46;433330;1270;109073;-43
2022/05/19 18:18:23;;;;;;;8.50;2.90;;;;;;;21.71;26.16;99095.35;433316;1269;97906;-48
2022/05/19 18:28:34;;;;;;;5.70;3.00;;;;;;;21.14;26.57;99092.16;433227;1269;110814;-44
2022/05/19 18:48:48;;;;;;;13.40;3.10;;;;;;;20.28;27.61;99115.04;433279;1270;97102;-49
2022/05/19 18:58:57;;;;;;;12.20;3.70;;;;;;;19.90;28.08;99127.44;433206;1270;110778;-44
2022/05/19 19:09:05;;;;;;;10.50;4.60;;;;;;;19.70;28.53;99132.12;433125;1269;109732;-44
2022/05/19 19:19:12;;;;;;;16.40;6.70;;;;;;;19.40;28.76;99123.88;433224;1270;97922;-46
2022/05/19 19:29:20;;;;;;;13.80;5.20;;;;;;;18.97;29.30;99122.79;433084;1269;108865;-42
2022/05/19 19:39:28;;;;;;;8.70;4.40;;;;;;;18.61;29.86;99110.68;433169;1270;97894;-49
2022/05/19 19:49:36;;;;;;;7.00;3.80;;;;;;;18.49;30.45;99107.16;433058;1270;111282;-47
2022/05/19 19:59:43;;;;;;;8.10;4.20;;;;;;;18.54;30.42;99105.96;433243;1270;109781;-45
2022/05/19 20:09:50;;;;;;;5.70;2.70;;;;;;;18.57;30.73;99112.13;433164;1269;97904;-45
2022/05/19 20:19:58;;;;;;;5.80;3.30;;;;;;;18.53;30.78;99106.61;433260;1270;109111;-47
2022/05/19 20:30:08;;;;;;;6.10;3.10;;;;;;;18.41;31.08;99102.92;433326;1270;97936;-47
2022/05/19 20:40:16;;;;;;;7.10;2.30;;;;;;;18.29;31.27;99096.20;433266;1269;111146;-43
2022/05/19 20:50:24;;;;;;;4.90;2.40;;;;;;;18.19;31.28;99084.41;433197;1269;108823;-46
2022/05/19 21:00:30;;;;;;;6.40;2.20;;;;;;;18.12;31.75;99067.66;433424;1270;97781;-47
2022/05/19 21:10:37;;;;;;;3.40;2.20;;;;;;;18.06;31.73;99069.33;433302;1270;108865;-44
2022/05/19 21:20:45;;;;;;;4.10;1.50;;;;;;;18.03;31.90;99067.23;433323;1269;97934;-46
2022/05/19 21:40:59;;;;;;;7.10;2.10;;;;;;;17.84;32.28;99063.48;433369;1270;108804;-44
2022/05/19 22:01:32;;;;;;;10.10;2.10;;;;;;;17.59;32.71;99038.98;433186;1268;111360;-44
2022/05/19 22:11:39;;;;;;;5.50;1.70;;;;;;;17.49;32.93;99046.65;433186;1270;108847;-44
2022/05/19 22:21:46;;;;;;;6.10;1.60;;;;;;;17.40;32.99;99029.95;433245;1269;98111;-46
2022/05/19 22:31:53;;;;;;;7.70;2.90;;;;;;;17.36;33.13;99025.02;433200;1270;111043;-42
2022/05/19 22:42:00;;;;;;;10.90;2.10;;;;;;;17.31;33.22;99009.95;433218;1270;108649;-49
2022/05/19 22:52:09;;;;;;;4.90;1.10;;;;;;;17.26;33.32;99006.13;432902;1270;493581;-45
2022/05/19 23:02:17;;;;;;;12.20;1.60;;;;;;;17.22;33.39;99004.67;433380;1270;110954;-47
2022/05/19 23:12:25;;;;;;;8.90;1.20;;;;;;;17.16;33.54;98997.71;433449;1270;108875;-44
2022/05/19 23:22:32;;;;;;;5.50;1.60;;;;;;;17.09;33.58;98984.02;433260;1270;97999;-44
2022/05/19 23:43:04;;;;;;;2.00;1.30;;;;;;;16.91;33.94;98975.35;433099;1271;108903;-43
2022/05/19 23:53:12;;;;;;;4.60;1.90;;;;;;;16.81;34.06;98976.92;433212;1270;96618;-42
